Centerville, TX

6:17 AM CDT on August 25, 2016 (GMT -0500)
2.3 Miles SSE of Centerville, TX | | Change Station

Elev 430 ft 31.23 °N, 95.97 °W | Updated 2 minutes ago

Clear
Clear
74.9 °F
Feels Like 73 °F
N
0.0
Wind Variable Wind from South
Gusts 0.0 mph

Today
High -- | Low -- °F
--% Chance of Precip.
Yesterday
High -- | Low -- °F
Precip. -- in
Pressure 30.10 in
Visibility 5.0 miles
Clouds Clear
Heat Index 73 °F
Dew Point 74 °F
Humidity 96%
Rainfall 0.00 in
Snow Depth Not available.
6:56 AM 7:55 PM
Waning Gibbous, 46% visible
METAR KDKR 251050Z AUTO 00000KT 5SM BR CLR 23/22 A3010 RMK AO2
Pressure 30.10 in
Visibility 5.0 miles
Clouds Clear
Heat Index 73 °F
Dew Point 74 °F
Humidity 96%
Rainfall 0.00 in
Snow Depth Not available.
6:56 AM 7:55 PM
Waning Gibbous, 46% visible
METAR KDKR 251050Z AUTO 00000KT 5SM BR CLR 23/22 A3010 RMK AO2

10-Day Weather Forecast

Almanac

Astronomy

Aug. 25, 2016 Rise Set
Actual Time
Civil Twilight
Nautical Twilight
Astronomical Twilight
Moon
Length of Visible Light
Length of Day
Tomorrow will be .
, % of the Moon is Illuminated

Today's Extremes

State Highs State Lows

Community

WunderPhotos

Upload Photos

1,934,822 photos uploaded!

WunderBlog® & News

Nearby

Air Quality

  Air Quality AQ Index Pollutant
Not available.

Snow Depth

Station Depth Elevation

Earthquake Activity

City Distance Mag. Time & Date
Minimum magnitude displayed is 2.5.

Coastal Water Temperatures

Place Temperature

Stations

Nearby Weather Stations

Station Location Temp. Windchill Dew Point Humidity Wind Precip. Elev Updated Type
                   

Watches & Warnings

There are currently no watches in effect.